Airports Germany Hamburg Airport

Hamburg Airport (EDDH / HAM)

Facts about Hamburg Airport

Name Hamburg Airport
City Hamburg
Country Germany
ICAO code EDDH
IATA code HAM
Elevation 16.1544 meters (53 feet)

Weather

METAR

Metar data retrieved Saturday, 20 July 2024 at 00:55 UTC (24 minutes ago)

EDDH 200020Z AUTO VRB02KT CAVOK 16/13 Q1017 NOSIG

Live traffic

Navigraph Charts (account required)